sensor_id;sensor_type;location;lat;lon;timestamp;temperature;humidity
15359;DHT22;7779;49.596;11.070;2022-10-18T00:01:55;13.70;77.80
15359;DHT22;7779;49.596;11.070;2022-10-18T00:04:21;13.70;77.80
15359;DHT22;7779;49.596;11.070;2022-10-18T00:06:46;13.70;77.90
15359;DHT22;7779;49.596;11.070;2022-10-18T00:09:12;13.70;77.90
15359;DHT22;7779;49.596;11.070;2022-10-18T00:11:38;13.60;77.80
15359;DHT22;7779;49.596;11.070;2022-10-18T00:14:04;13.60;77.80
15359;DHT22;7779;49.596;11.070;2022-10-18T00:16:30;13.60;77.90
15359;DHT22;7779;49.596;11.070;2022-10-18T00:18:56;13.50;77.80
15359;DHT22;7779;49.596;11.070;2022-10-18T00:21:24;13.50;77.80
15359;DHT22;7779;49.596;11.070;2022-10-18T00:23:51;13.50;77.80
15359;DHT22;7779;49.596;11.070;2022-10-18T00:26:22;13.50;77.80
15359;DHT22;7779;49.596;11.070;2022-10-18T00:28:53;13.50;77.80
15359;DHT22;7779;49.596;11.070;2022-10-18T00:31:24;13.40;77.80
15359;DHT22;7779;49.596;11.070;2022-10-18T00:34:00;13.40;77.80
15359;DHT22;7779;49.596;11.070;2022-10-18T00:36:29;13.40;78.00
15359;DHT22;7779;49.596;11.070;2022-10-18T00:38:56;13.40;77.80
15359;DHT22;7779;49.596;11.070;2022-10-18T00:41:26;13.40;77.70
15359;DHT22;7779;49.596;11.070;2022-10-18T00:46:45;13.30;77.80
15359;DHT22;7779;49.596;11.070;2022-10-18T00:49:26;13.30;78.50
15359;DHT22;7779;49.596;11.070;2022-10-18T00:52:07;13.30;78.30
15359;DHT22;7779;49.596;11.070;2022-10-18T00:54:38;13.30;78.30
15359;DHT22;7779;49.596;11.070;2022-10-18T00:57:07;13.20;77.80
15359;DHT22;7779;49.596;11.070;2022-10-18T00:59:34;13.10;77.70
15359;DHT22;7779;49.596;11.070;2022-10-18T01:02:01;13.20;77.80
15359;DHT22;7779;49.596;11.070;2022-10-18T01:04:27;13.10;77.80
15359;DHT22;7779;49.596;11.070;2022-10-18T01:16:07;13.00;78.70
15359;DHT22;7779;49.596;11.070;2022-10-18T01:18:59;13.00;78.70
15359;DHT22;7779;49.596;11.070;2022-10-18T01:21:44;13.00;78.40
15359;DHT22;7779;49.596;11.070;2022-10-18T01:33:04;12.90;77.90
15359;DHT22;7779;49.596;11.070;2022-10-18T01:35:40;12.90;78.30
15359;DHT22;7779;49.596;11.070;2022-10-18T01:38:14;12.80;77.90
15359;DHT22;7779;49.596;11.070;2022-10-18T01:40:44;12.80;78.00
15359;DHT22;7779;49.596;11.070;2022-10-18T01:43:12;12.80;78.00
15359;DHT22;7779;49.596;11.070;2022-10-18T01:45:40;12.80;78.10
15359;DHT22;7779;49.596;11.070;2022-10-18T01:48:08;12.80;78.30
15359;DHT22;7779;49.596;11.070;2022-10-18T01:50:36;12.80;78.50
15359;DHT22;7779;49.596;11.070;2022-10-18T01:53:01;12.80;78.50
15359;DHT22;7779;49.596;11.070;2022-10-18T01:55:32;12.80;78.50
15359;DHT22;7779;49.596;11.070;2022-10-18T01:58:22;12.80;78.70
15359;DHT22;7779;49.596;11.070;2022-10-18T02:13:14;12.80;79.10
15359;DHT22;7779;49.596;11.070;2022-10-18T02:15:46;12.70;78.30
15359;DHT22;7779;49.596;11.070;2022-10-18T02:18:18;12.70;78.40
15359;DHT22;7779;49.596;11.070;2022-10-18T02:20:48;12.70;78.50
15359;DHT22;7779;49.596;11.070;2022-10-18T02:23:19;12.70;78.40
15359;DHT22;7779;49.596;11.070;2022-10-18T02:25:47;12.70;78.60
15359;DHT22;7779;49.596;11.070;2022-10-18T02:28:13;12.70;78.50
15359;DHT22;7779;49.596;11.070;2022-10-18T02:30:50;12.70;78.60
15359;DHT22;7779;49.596;11.070;2022-10-18T02:36:16;12.70;79.10
15359;DHT22;7779;49.596;11.070;2022-10-18T02:39:00;12.70;79.30
15359;DHT22;7779;49.596;11.070;2022-10-18T02:41:30;12.70;78.90
15359;DHT22;7779;49.596;11.070;2022-10-18T02:43:56;12.70;78.60
15359;DHT22;7779;49.596;11.070;2022-10-18T02:46:22;12.60;78.50
15359;DHT22;7779;49.596;11.070;2022-10-18T02:48:48;12.60;79.20
15359;DHT22;7779;49.596;11.070;2022-10-18T02:51:14;12.60;78.70
15359;DHT22;7779;49.596;11.070;2022-10-18T02:53:41;12.60;78.70
15359;DHT22;7779;49.596;11.070;2022-10-18T02:56:07;12.60;78.70
15359;DHT22;7779;49.596;11.070;2022-10-18T02:58:33;12.60;78.80
15359;DHT22;7779;49.596;11.070;2022-10-18T03:00:58;12.60;78.80
15359;DHT22;7779;49.596;11.070;2022-10-18T03:03:24;12.60;78.80
15359;DHT22;7779;49.596;11.070;2022-10-18T03:05:51;12.60;78.90
15359;DHT22;7779;49.596;11.070;2022-10-18T03:08:17;12.60;78.80
15359;DHT22;7779;49.596;11.070;2022-10-18T03:10:44;12.60;78.70
15359;DHT22;7779;49.596;11.070;2022-10-18T03:13:11;12.60;78.70
15359;DHT22;7779;49.596;11.070;2022-10-18T03:15:37;12.60;78.70
15359;DHT22;7779;49.596;11.070;2022-10-18T03:18:03;12.60;78.70
15359;DHT22;7779;49.596;11.070;2022-10-18T03:20:29;12.60;79.20
15359;DHT22;7779;49.596;11.070;2022-10-18T03:22:55;12.60;78.60
15359;DHT22;7779;49.596;11.070;2022-10-18T03:25:21;12.50;78.50
15359;DHT22;7779;49.596;11.070;2022-10-18T03:27:47;12.50;78.50
15359;DHT22;7779;49.596;11.070;2022-10-18T03:30:12;12.50;78.60
15359;DHT22;7779;49.596;11.070;2022-10-18T03:32:39;12.50;78.60
15359;DHT22;7779;49.596;11.070;2022-10-18T03:35:06;12.50;78.70
15359;DHT22;7779;49.596;11.070;2022-10-18T03:37:34;12.50;78.70
15359;DHT22;7779;49.596;11.070;2022-10-18T03:40:00;12.50;78.80
15359;DHT22;7779;49.596;11.070;2022-10-18T03:42:26;12.50;78.90
15359;DHT22;7779;49.596;11.070;2022-10-18T03:44:52;12.40;78.80
15359;DHT22;7779;49.596;11.070;2022-10-18T03:47:18;12.40;78.80
15359;DHT22;7779;49.596;11.070;2022-10-18T03:49:43;12.40;78.80
15359;DHT22;7779;49.596;11.070;2022-10-18T03:52:09;12.40;78.80
15359;DHT22;7779;49.596;11.070;2022-10-18T03:54:35;12.40;78.80
15359;DHT22;7779;49.596;11.070;2022-10-18T03:57:00;12.40;78.90
15359;DHT22;7779;49.596;11.070;2022-10-18T03:59:26;12.40;78.90
15359;DHT22;7779;49.596;11.070;2022-10-18T04:01:52;12.40;79.00
15359;DHT22;7779;49.596;11.070;2022-10-18T04:04:18;12.40;79.20
15359;DHT22;7779;49.596;11.070;2022-10-18T04:06:44;12.40;79.30
15359;DHT22;7779;49.596;11.070;2022-10-18T04:09:09;12.40;79.60
15359;DHT22;7779;49.596;11.070;2022-10-18T04:11:35;12.40;79.80
15359;DHT22;7779;49.596;11.070;2022-10-18T04:14:01;12.50;80.10
15359;DHT22;7779;49.596;11.070;2022-10-18T04:16:26;12.50;80.30
15359;DHT22;7779;49.596;11.070;2022-10-18T04:18:52;12.50;80.40
15359;DHT22;7779;49.596;11.070;2022-10-18T04:21:18;12.50;80.50
15359;DHT22;7779;49.596;11.070;2022-10-18T04:23:47;12.60;80.60
15359;DHT22;7779;49.596;11.070;2022-10-18T04:26:13;12.60;80.80
15359;DHT22;7779;49.596;11.070;2022-10-18T04:28:41;12.60;80.70
15359;DHT22;7779;49.596;11.070;2022-10-18T04:31:08;12.70;80.80
15359;DHT22;7779;49.596;11.070;2022-10-18T04:33:35;12.70;80.90
15359;DHT22;7779;49.596;11.070;2022-10-18T04:36:01;12.70;80.90
15359;DHT22;7779;49.596;11.070;2022-10-18T04:38:27;12.80;81.00
15359;DHT22;7779;49.596;11.070;2022-10-18T04:40:52;12.90;81.10
15359;DHT22;7779;49.596;11.070;2022-10-18T04:43:18;12.90;81.00
15359;DHT22;7779;49.596;11.070;2022-10-18T04:45:45;12.90;81.00
15359;DHT22;7779;49.596;11.070;2022-10-18T04:48:11;12.90;80.90
15359;DHT22;7779;49.596;11.070;2022-10-18T04:50:37;13.00;80.90
15359;DHT22;7779;49.596;11.070;2022-10-18T04:53:12;13.00;80.90
15359;DHT22;7779;49.596;11.070;2022-10-18T04:55:39;13.00;81.00
15359;DHT22;7779;49.596;11.070;2022-10-18T04:58:04;13.10;81.20
15359;DHT22;7779;49.596;11.070;2022-10-18T05:00:30;13.10;81.30
15359;DHT22;7779;49.596;11.070;2022-10-18T05:02:58;13.10;81.30
15359;DHT22;7779;49.596;11.070;2022-10-18T05:05:24;13.20;81.60
15359;DHT22;7779;49.596;11.070;2022-10-18T05:07:50;13.20;82.70
15359;DHT22;7779;49.596;11.070;2022-10-18T05:10:16;13.30;81.70
15359;DHT22;7779;49.596;11.070;2022-10-18T05:12:41;13.30;81.70
15359;DHT22;7779;49.596;11.070;2022-10-18T05:15:08;13.30;81.70
15359;DHT22;7779;49.596;11.070;2022-10-18T05:17:35;13.40;81.80
15359;DHT22;7779;49.596;11.070;2022-10-18T05:20:01;13.40;81.80
15359;DHT22;7779;49.596;11.070;2022-10-18T05:22:27;13.50;81.90
15359;DHT22;7779;49.596;11.070;2022-10-18T05:24:53;13.40;81.90
15359;DHT22;7779;49.596;11.070;2022-10-18T05:27:19;13.50;81.90
15359;DHT22;7779;49.596;11.070;2022-10-18T05:29:44;13.60;82.00
15359;DHT22;7779;49.596;11.070;2022-10-18T05:32:10;13.60;82.00
15359;DHT22;7779;49.596;11.070;2022-10-18T05:34:36;13.70;82.10
15359;DHT22;7779;49.596;11.070;2022-10-18T05:37:02;13.70;82.00
15359;DHT22;7779;49.596;11.070;2022-10-18T05:39:28;13.70;82.10
15359;DHT22;7779;49.596;11.070;2022-10-18T05:41:53;13.70;82.10
15359;DHT22;7779;49.596;11.070;2022-10-18T05:44:19;13.80;82.30
15359;DHT22;7779;49.596;11.070;2022-10-18T05:46:45;13.80;82.30
15359;DHT22;7779;49.596;11.070;2022-10-18T05:49:12;13.80;82.30
15359;DHT22;7779;49.596;11.070;2022-10-18T05:51:38;13.90;82.40
15359;DHT22;7779;49.596;11.070;2022-10-18T05:54:04;13.90;82.30
15359;DHT22;7779;49.596;11.070;2022-10-18T05:56:29;14.00;82.50
15359;DHT22;7779;49.596;11.070;2022-10-18T05:58:55;13.90;82.40
15359;DHT22;7779;49.596;11.070;2022-10-18T06:01:21;14.00;82.50
15359;DHT22;7779;49.596;11.070;2022-10-18T06:03:47;14.00;82.60
15359;DHT22;7779;49.596;11.070;2022-10-18T06:06:13;14.10;82.70
15359;DHT22;7779;49.596;11.070;2022-10-18T06:08:41;14.10;82.70
15359;DHT22;7779;49.596;11.070;2022-10-18T06:11:13;14.20;82.80
15359;DHT22;7779;49.596;11.070;2022-10-18T06:13:41;14.20;82.90
15359;DHT22;7779;49.596;11.070;2022-10-18T06:16:09;14.20;82.90
15359;DHT22;7779;49.596;11.070;2022-10-18T06:18:36;14.20;82.90
15359;DHT22;7779;49.596;11.070;2022-10-18T06:21:03;14.30;82.90
15359;DHT22;7779;49.596;11.070;2022-10-18T06:23:29;14.30;82.90
15359;DHT22;7779;49.596;11.070;2022-10-18T06:26:05;14.40;83.00
15359;DHT22;7779;49.596;11.070;2022-10-18T06:28:34;14.40;83.50
15359;DHT22;7779;49.596;11.070;2022-10-18T06:31:01;14.50;83.20
15359;DHT22;7779;49.596;11.070;2022-10-18T06:33:29;14.50;83.10
15359;DHT22;7779;49.596;11.070;2022-10-18T06:36:01;14.50;83.10
15359;DHT22;7779;49.596;11.070;2022-10-18T06:38:30;14.60;83.40
15359;DHT22;7779;49.596;11.070;2022-10-18T06:40:57;14.60;83.10
15359;DHT22;7779;49.596;11.070;2022-10-18T06:43:24;14.60;83.10
15359;DHT22;7779;49.596;11.070;2022-10-18T06:45:51;14.70;83.20
15359;DHT22;7779;49.596;11.070;2022-10-18T06:48:17;14.70;83.20
15359;DHT22;7779;49.596;11.070;2022-10-18T06:50:58;14.80;83.30
15359;DHT22;7779;49.596;11.070;2022-10-18T06:53:27;14.80;84.00
15359;DHT22;7779;49.596;11.070;2022-10-18T06:58:27;14.90;83.70
15359;DHT22;7779;49.596;11.070;2022-10-18T07:00:54;14.90;83.30
15359;DHT22;7779;49.596;11.070;2022-10-18T07:03:19;15.00;83.30
15359;DHT22;7779;49.596;11.070;2022-10-18T07:05:49;15.00;83.30
15359;DHT22;7779;49.596;11.070;2022-10-18T07:08:15;15.10;83.50
15359;DHT22;7779;49.596;11.070;2022-10-18T07:10:48;15.10;83.60
15359;DHT22;7779;49.596;11.070;2022-10-18T07:13:16;15.20;83.70
15359;DHT22;7779;49.596;11.070;2022-10-18T07:15:41;15.20;83.70
15359;DHT22;7779;49.596;11.070;2022-10-18T07:18:07;15.30;84.40
15359;DHT22;7779;49.596;11.070;2022-10-18T07:20:33;15.30;83.80
15359;DHT22;7779;49.596;11.070;2022-10-18T07:22:58;15.40;83.80
15359;DHT22;7779;49.596;11.070;2022-10-18T07:25:24;15.40;83.70
15359;DHT22;7779;49.596;11.070;2022-10-18T07:27:50;15.50;83.70
15359;DHT22;7779;49.596;11.070;2022-10-18T07:30:16;15.50;83.60
15359;DHT22;7779;49.596;11.070;2022-10-18T07:32:41;15.60;83.50
15359;DHT22;7779;49.596;11.070;2022-10-18T07:35:07;15.60;83.30
15359;DHT22;7779;49.596;11.070;2022-10-18T07:37:33;15.60;83.20
15359;DHT22;7779;49.596;11.070;2022-10-18T07:39:59;15.60;83.00
15359;DHT22;7779;49.596;11.070;2022-10-18T07:42:24;15.70;83.00
15359;DHT22;7779;49.596;11.070;2022-10-18T07:44:50;15.70;83.00
15359;DHT22;7779;49.596;11.070;2022-10-18T07:47:16;15.80;83.00
15359;DHT22;7779;49.596;11.070;2022-10-18T07:49:42;15.80;82.90
15359;DHT22;7779;49.596;11.070;2022-10-18T07:52:08;15.80;82.80
15359;DHT22;7779;49.596;11.070;2022-10-18T07:54:33;15.80;82.70
15359;DHT22;7779;49.596;11.070;2022-10-18T07:56:59;15.90;82.80
15359;DHT22;7779;49.596;11.070;2022-10-18T07:59:25;15.90;82.80
15359;DHT22;7779;49.596;11.070;2022-10-18T08:01:51;15.90;82.80
15359;DHT22;7779;49.596;11.070;2022-10-18T08:04:16;15.90;82.80
15359;DHT22;7779;49.596;11.070;2022-10-18T08:06:42;16.00;82.90
15359;DHT22;7779;49.596;11.070;2022-10-18T08:09:08;16.00;83.10
15359;DHT22;7779;49.596;11.070;2022-10-18T08:11:34;16.00;83.30
15359;DHT22;7779;49.596;11.070;2022-10-18T08:14:00;16.00;83.50
15359;DHT22;7779;49.596;11.070;2022-10-18T08:16:27;16.10;83.80
15359;DHT22;7779;49.596;11.070;2022-10-18T08:18:55;16.20;84.10
15359;DHT22;7779;49.596;11.070;2022-10-18T08:21:22;16.30;84.30
15359;DHT22;7779;49.596;11.070;2022-10-18T08:23:48;16.40;84.30
15359;DHT22;7779;49.596;11.070;2022-10-18T08:26:19;16.40;84.40
15359;DHT22;7779;49.596;11.070;2022-10-18T08:28:48;16.50;84.60
15359;DHT22;7779;49.596;11.070;2022-10-18T08:31:16;16.60;84.60
15359;DHT22;7779;49.596;11.070;2022-10-18T08:33:43;16.70;84.80
15359;DHT22;7779;49.596;11.070;2022-10-18T08:36:12;16.80;84.90
15359;DHT22;7779;49.596;11.070;2022-10-18T08:38:40;17.00;85.10
15359;DHT22;7779;49.596;11.070;2022-10-18T08:44:31;17.20;84.80
15359;DHT22;7779;49.596;11.070;2022-10-18T08:47:05;17.30;84.50
15359;DHT22;7779;49.596;11.070;2022-10-18T08:55:11;17.70;84.50
15359;DHT22;7779;49.596;11.070;2022-10-18T08:57:45;17.80;84.50
15359;DHT22;7779;49.596;11.070;2022-10-18T09:00:24;18.00;84.70
15359;DHT22;7779;49.596;11.070;2022-10-18T09:03:06;18.10;84.00
15359;DHT22;7779;49.596;11.070;2022-10-18T09:06:04;18.20;83.80
15359;DHT22;7779;49.596;11.070;2022-10-18T09:09:15;18.40;84.10
15359;DHT22;7779;49.596;11.070;2022-10-18T09:12:35;18.60;83.80
15359;DHT22;7779;49.596;11.070;2022-10-18T09:15:05;18.70;83.20
15359;DHT22;7779;49.596;11.070;2022-10-18T09:18:08;18.90;84.10
15359;DHT22;7779;49.596;11.070;2022-10-18T09:21:00;19.00;83.30
15359;DHT22;7779;49.596;11.070;2022-10-18T09:23:53;19.20;82.30
15359;DHT22;7779;49.596;11.070;2022-10-18T09:26:27;19.40;82.50
15359;DHT22;7779;49.596;11.070;2022-10-18T09:31:59;19.60;81.60
15359;DHT22;7779;49.596;11.070;2022-10-18T09:34:52;19.80;82.40
15359;DHT22;7779;49.596;11.070;2022-10-18T09:37:23;19.90;80.50
15359;DHT22;7779;49.596;11.070;2022-10-18T09:39:58;20.00;82.10
15359;DHT22;7779;49.596;11.070;2022-10-18T09:42:33;20.20;81.90
15359;DHT22;7779;49.596;11.070;2022-10-18T09:45:11;20.30;81.60
15359;DHT22;7779;49.596;11.070;2022-10-18T09:50:26;20.60;80.60
15359;DHT22;7779;49.596;11.070;2022-10-18T09:56:00;20.80;80.00
15359;DHT22;7779;49.596;11.070;2022-10-18T09:58:39;21.00;78.20
15359;DHT22;7779;49.596;11.070;2022-10-18T10:01:08;21.10;78.60
15359;DHT22;7779;49.596;11.070;2022-10-18T10:03:36;21.20;79.60
15359;DHT22;7779;49.596;11.070;2022-10-18T10:06:29;21.30;79.20
15359;DHT22;7779;49.596;11.070;2022-10-18T10:14:06;21.60;78.10
15359;DHT22;7779;49.596;11.070;2022-10-18T10:16:46;21.60;77.10
15359;DHT22;7779;49.596;11.070;2022-10-18T10:19:55;21.70;76.60
15359;DHT22;7779;49.596;11.070;2022-10-18T10:22:29;21.80;75.10
15359;DHT22;7779;49.596;11.070;2022-10-18T10:25:00;21.80;76.10
15359;DHT22;7779;49.596;11.070;2022-10-18T10:27:36;21.80;76.50
15359;DHT22;7779;49.596;11.070;2022-10-18T10:30:48;21.90;75.60
15359;DHT22;7779;49.596;11.070;2022-10-18T10:33:35;21.90;74.10
15359;DHT22;7779;49.596;11.070;2022-10-18T10:36:05;21.90;74.20
15359;DHT22;7779;49.596;11.070;2022-10-18T10:38:41;22.00;75.80
15359;DHT22;7779;49.596;11.070;2022-10-18T10:41:18;22.00;75.60
15359;DHT22;7779;49.596;11.070;2022-10-18T10:43:46;22.10;74.00
15359;DHT22;7779;49.596;11.070;2022-10-18T10:46:15;22.10;74.90
15359;DHT22;7779;49.596;11.070;2022-10-18T10:48:50;22.10;74.70
15359;DHT22;7779;49.596;11.070;2022-10-18T10:51:36;22.20;73.80
15359;DHT22;7779;49.596;11.070;2022-10-18T10:54:14;22.20;73.00
15359;DHT22;7779;49.596;11.070;2022-10-18T10:56:53;22.20;74.00
15359;DHT22;7779;49.596;11.070;2022-10-18T10:59:25;22.20;72.60
15359;DHT22;7779;49.596;11.070;2022-10-18T11:04:42;22.20;71.60
15359;DHT22;7779;49.596;11.070;2022-10-18T11:10:23;22.10;73.00
15359;DHT22;7779;49.596;11.070;2022-10-18T11:13:20;22.10;72.90
15359;DHT22;7779;49.596;11.070;2022-10-18T11:15:58;21.90;72.00
15359;DHT22;7779;49.596;11.070;2022-10-18T11:18:32;21.90;71.60
15359;DHT22;7779;49.596;11.070;2022-10-18T11:21:07;21.80;72.50
15359;DHT22;7779;49.596;11.070;2022-10-18T11:23:41;21.70;72.40
15359;DHT22;7779;49.596;11.070;2022-10-18T11:32:26;21.30;72.80
15359;DHT22;7779;49.596;11.070;2022-10-18T11:44:00;20.70;75.40
15359;DHT22;7779;49.596;11.070;2022-10-18T11:49:47;20.60;76.50
15359;DHT22;7779;49.596;11.070;2022-10-18T11:52:42;20.50;77.10
15359;DHT22;7779;49.596;11.070;2022-10-18T12:01:15;20.50;77.90
15359;DHT22;7779;49.596;11.070;2022-10-18T12:04:19;20.60;77.80
15359;DHT22;7779;49.596;11.070;2022-10-18T12:06:51;20.60;78.10
15359;DHT22;7779;49.596;11.070;2022-10-18T12:09:36;20.60;78.00
15359;DHT22;7779;49.596;11.070;2022-10-18T12:14:46;20.60;78.50
15359;DHT22;7779;49.596;11.070;2022-10-18T12:19:59;20.60;79.10
15359;DHT22;7779;49.596;11.070;2022-10-18T12:22:36;20.60;79.20
15359;DHT22;7779;49.596;11.070;2022-10-18T12:25:12;20.70;79.40
15359;DHT22;7779;49.596;11.070;2022-10-18T12:27:45;20.80;79.80
15359;DHT22;7779;49.596;11.070;2022-10-18T12:30:25;20.80;79.80
15359;DHT22;7779;49.596;11.070;2022-10-18T12:33:22;20.90;79.80
15359;DHT22;7779;49.596;11.070;2022-10-18T12:38:43;21.00;78.80
15359;DHT22;7779;49.596;11.070;2022-10-18T12:41:21;21.00;79.40
15359;DHT22;7779;49.596;11.070;2022-10-18T12:43:59;21.00;79.40
15359;DHT22;7779;49.596;11.070;2022-10-18T12:46:45;21.00;79.20
15359;DHT22;7779;49.596;11.070;2022-10-18T12:49:20;21.10;79.30
15359;DHT22;7779;49.596;11.070;2022-10-18T12:52:19;21.10;78.70
15359;DHT22;7779;49.596;11.070;2022-10-18T13:08:40;20.90;78.30
15359;DHT22;7779;49.596;11.070;2022-10-18T13:19:21;20.70;79.20
15359;DHT22;7779;49.596;11.070;2022-10-18T13:27:51;20.70;79.90
15359;DHT22;7779;49.596;11.070;2022-10-18T13:33:36;20.70;79.90
15359;DHT22;7779;49.596;11.070;2022-10-18T13:49:38;20.70;80.00
15359;DHT22;7779;49.596;11.070;2022-10-18T13:53:00;20.80;80.10
15359;DHT22;7779;49.596;11.070;2022-10-18T14:05:12;20.90;80.20
15359;DHT22;7779;49.596;11.070;2022-10-18T14:07:45;21.00;80.00
15359;DHT22;7779;49.596;11.070;2022-10-18T14:10:24;21.00;79.90
15359;DHT22;7779;49.596;11.070;2022-10-18T14:13:01;21.00;79.70
15359;DHT22;7779;49.596;11.070;2022-10-18T14:15:35;21.90;80.70
15359;DHT22;7779;49.596;11.070;2022-10-18T14:18:26;21.00;79.60
15359;DHT22;7779;49.596;11.070;2022-10-18T14:21:06;21.10;79.60
15359;DHT22;7779;49.596;11.070;2022-10-18T14:23:41;21.10;79.60
15359;DHT22;7779;49.596;11.070;2022-10-18T14:26:16;21.10;79.40
15359;DHT22;7779;49.596;11.070;2022-10-18T14:28:44;21.10;79.20
15359;DHT22;7779;49.596;11.070;2022-10-18T14:31:14;21.10;79.20
15359;DHT22;7779;49.596;11.070;2022-10-18T14:33:50;21.10;78.80
15359;DHT22;7779;49.596;11.070;2022-10-18T14:39:03;21.10;78.60
15359;DHT22;7779;49.596;11.070;2022-10-18T14:41:32;21.10;78.30
15359;DHT22;7779;49.596;11.070;2022-10-18T14:44:26;21.10;78.20
15359;DHT22;7779;49.596;11.070;2022-10-18T14:47:13;21.10;77.80
15359;DHT22;7779;49.596;11.070;2022-10-18T14:49:44;21.00;78.20
15359;DHT22;7779;49.596;11.070;2022-10-18T14:52:19;21.00;77.70
15359;DHT22;7779;49.596;11.070;2022-10-18T14:54:58;20.90;77.50
15359;DHT22;7779;49.596;11.070;2022-10-18T14:57:33;20.90;77.40
15359;DHT22;7779;49.596;11.070;2022-10-18T15:00:06;20.90;77.30
15359;DHT22;7779;49.596;11.070;2022-10-18T15:02:36;20.80;77.20
15359;DHT22;7779;49.596;11.070;2022-10-18T15:05:19;20.70;77.10
15359;DHT22;7779;49.596;11.070;2022-10-18T15:07:47;20.70;77.20
15359;DHT22;7779;49.596;11.070;2022-10-18T15:10:26;20.60;77.10
15359;DHT22;7779;49.596;11.070;2022-10-18T15:12:56;20.60;77.40
15359;DHT22;7779;49.596;11.070;2022-10-18T15:15:30;20.50;77.30
15359;DHT22;7779;49.596;11.070;2022-10-18T15:17:59;20.40;77.50
15359;DHT22;7779;49.596;11.070;2022-10-18T15:20:29;20.40;77.60
15359;DHT22;7779;49.596;11.070;2022-10-18T15:23:29;20.40;77.70
15359;DHT22;7779;49.596;11.070;2022-10-18T15:26:02;20.30;78.50
15359;DHT22;7779;49.596;11.070;2022-10-18T15:31:27;20.20;78.10
15359;DHT22;7779;49.596;11.070;2022-10-18T15:34:10;20.10;78.30
15359;DHT22;7779;49.596;11.070;2022-10-18T15:36:39;20.10;78.80
15359;DHT22;7779;49.596;11.070;2022-10-18T15:39:26;20.00;78.20
15359;DHT22;7779;49.596;11.070;2022-10-18T15:44:28;19.90;78.30
15359;DHT22;7779;49.596;11.070;2022-10-18T15:47:15;19.90;78.60
15359;DHT22;7779;49.596;11.070;2022-10-18T15:49:57;19.90;79.00
15359;DHT22;7779;49.596;11.070;2022-10-18T15:52:41;19.80;78.50
15359;DHT22;7779;49.596;11.070;2022-10-18T15:55:40;19.80;79.00
15359;DHT22;7779;49.596;11.070;2022-10-18T16:00:47;19.70;78.70
15359;DHT22;7779;49.596;11.070;2022-10-18T16:03:15;19.70;78.70
15359;DHT22;7779;49.596;11.070;2022-10-18T16:05:43;19.60;78.50
15359;DHT22;7779;49.596;11.070;2022-10-18T16:08:25;19.60;78.60
15359;DHT22;7779;49.596;11.070;2022-10-18T16:10:59;19.50;78.70
15359;DHT22;7779;49.596;11.070;2022-10-18T16:13:25;19.50;78.50
15359;DHT22;7779;49.596;11.070;2022-10-18T16:15:52;19.40;78.50
15359;DHT22;7779;49.596;11.070;2022-10-18T16:18:20;19.40;78.60
15359;DHT22;7779;49.596;11.070;2022-10-18T16:20:47;19.40;78.70
15359;DHT22;7779;49.596;11.070;2022-10-18T16:23:22;19.40;78.80
15359;DHT22;7779;49.596;11.070;2022-10-18T16:25:50;19.30;79.20
15359;DHT22;7779;49.596;11.070;2022-10-18T16:28:21;19.30;78.90
15359;DHT22;7779;49.596;11.070;2022-10-18T16:30:58;19.20;78.90
15359;DHT22;7779;49.596;11.070;2022-10-18T16:33:25;19.20;79.50
15359;DHT22;7779;49.596;11.070;2022-10-18T16:35:51;19.10;79.00
15359;DHT22;7779;49.596;11.070;2022-10-18T16:38:25;19.10;79.20
15359;DHT22;7779;49.596;11.070;2022-10-18T16:41:05;19.00;79.70
15359;DHT22;7779;49.596;11.070;2022-10-18T16:43:32;19.00;79.80
15359;DHT22;7779;49.596;11.070;2022-10-18T16:45:59;18.90;79.60
15359;DHT22;7779;49.596;11.070;2022-10-18T16:48:26;18.90;79.70
15359;DHT22;7779;49.596;11.070;2022-10-18T16:50:54;18.90;79.90
15359;DHT22;7779;49.596;11.070;2022-10-18T16:53:21;18.90;80.10
15359;DHT22;7779;49.596;11.070;2022-10-18T16:55:55;18.80;80.20
15359;DHT22;7779;49.596;11.070;2022-10-18T16:58:25;18.80;80.60
15359;DHT22;7779;49.596;11.070;2022-10-18T17:00:52;18.80;80.40
15359;DHT22;7779;49.596;11.070;2022-10-18T17:03:19;18.80;80.50
15359;DHT22;7779;49.596;11.070;2022-10-18T17:05:45;18.80;80.50
15359;DHT22;7779;49.596;11.070;2022-10-18T17:08:19;18.80;80.50
15359;DHT22;7779;49.596;11.070;2022-10-18T17:10:52;18.80;81.00
15359;DHT22;7779;49.596;11.070;2022-10-18T17:13:20;18.70;80.50
15359;DHT22;7779;49.596;11.070;2022-10-18T17:15:47;18.80;80.70
15359;DHT22;7779;49.596;11.070;2022-10-18T17:18:17;18.70;80.90
15359;DHT22;7779;49.596;11.070;2022-10-18T17:20:44;18.70;80.50
15359;DHT22;7779;49.596;11.070;2022-10-18T17:23:11;18.70;80.50
15359;DHT22;7779;49.596;11.070;2022-10-18T17:25:38;18.70;80.60
15359;DHT22;7779;49.596;11.070;2022-10-18T17:28:06;18.70;80.80
15359;DHT22;7779;49.596;11.070;2022-10-18T17:30:32;18.70;80.80
15359;DHT22;7779;49.596;11.070;2022-10-18T17:32:58;18.70;80.90
15359;DHT22;7779;49.596;11.070;2022-10-18T17:35:24;18.70;81.00
15359;DHT22;7779;49.596;11.070;2022-10-18T17:37:50;18.60;81.40
15359;DHT22;7779;49.596;11.070;2022-10-18T17:40:18;18.70;81.00
15359;DHT22;7779;49.596;11.070;2022-10-18T17:42:44;18.70;81.00
15359;DHT22;7779;49.596;11.070;2022-10-18T17:45:10;18.70;81.10
15359;DHT22;7779;49.596;11.070;2022-10-18T17:47:36;18.60;81.00
15359;DHT22;7779;49.596;11.070;2022-10-18T17:50:02;18.70;81.20
15359;DHT22;7779;49.596;11.070;2022-10-18T17:52:28;18.60;81.00
15359;DHT22;7779;49.596;11.070;2022-10-18T17:54:54;18.60;81.00
15359;DHT22;7779;49.596;11.070;2022-10-18T17:57:20;18.60;81.00
15359;DHT22;7779;49.596;11.070;2022-10-18T17:59:46;18.60;80.90
15359;DHT22;7779;49.596;11.070;2022-10-18T18:02:13;18.60;80.90
15359;DHT22;7779;49.596;11.070;2022-10-18T18:04:39;18.60;80.80
15359;DHT22;7779;49.596;11.070;2022-10-18T18:07:04;18.50;80.70
15359;DHT22;7779;49.596;11.070;2022-10-18T18:09:30;18.50;80.70
15359;DHT22;7779;49.596;11.070;2022-10-18T18:11:56;18.50;80.70
15359;DHT22;7779;49.596;11.070;2022-10-18T18:14:23;18.50;80.80
15359;DHT22;7779;49.596;11.070;2022-10-18T18:16:49;18.40;80.80
15359;DHT22;7779;49.596;11.070;2022-10-18T18:19:15;18.40;80.50
15359;DHT22;7779;49.596;11.070;2022-10-18T18:21:45;18.40;80.80
15359;DHT22;7779;49.596;11.070;2022-10-18T18:24:11;18.30;80.70
15359;DHT22;7779;49.596;11.070;2022-10-18T18:26:40;18.30;81.40
15359;DHT22;7779;49.596;11.070;2022-10-18T18:29:06;18.20;81.20
15359;DHT22;7779;49.596;11.070;2022-10-18T18:31:32;18.20;80.50
15359;DHT22;7779;49.596;11.070;2022-10-18T18:34:00;18.20;80.50
15359;DHT22;7779;49.596;11.070;2022-10-18T18:36:26;18.10;80.40
15359;DHT22;7779;49.596;11.070;2022-10-18T18:38:57;18.10;80.40
15359;DHT22;7779;49.596;11.070;2022-10-18T18:41:24;18.00;80.30